KDAN/DAN METAR and TAF weather

Enter ICAO airport designator
Station Type Date Time Source
KDAN METAR 2021/07/29 17:53 UTC NOAA

KDAN 291753Z AUTO 21008KT 10SM CLR 33/20 A2997 RMK AO2 SLP137 T03280200 10333 20222 58022


Station Type Date Time Source
KDAN Decoded METAR 2021/07/29 17:53 UTC NOAA

DANVILLE REGIONAL AIRPORT, VA, United States (KDAN) 36-34N 079-20W 175M
Jul 29, 2021 - 01:53 PM EDT / 2021.07.29 1753 UTC
Wind: from the SSW (210 degrees) at 9 MPH (8 KT):0
Visibility: 10 mile(s):0
Sky conditions: clear
Temperature: 91.0 F (32.8 C)
Heat index: 94.6 F (34.8 C):1
Dew Point: 68.0 F (20.0 C)
Relative Humidity: 46%
Pressure (altimeter): 29.97 in. Hg (1014 hPa)
Pressure tendency: 0.06 inches (2.2 hPa) lower than three hours ago
ob: KDAN 291753Z AUTO 21008KT 10SM CLR 33/20 A2997 RMK AO2 SLP137 T03280200 10333 20222 58022
cycle: 18

Station Type Date Time Source
KDAN TAF 2021/07/29 18:51 UTC NOAA

TAF KDAN 291749Z 2918/3018 24008G18KT P6SM FEW250
FM292000 24008G18KT P6SM VCSH SCT080
FM300000 23008KT P6SM SCT100
FM300600 25005KT P6SM OVC250
FM301500 31008G18KT P6SM SCT150

Example: see airport list